createdAt,value
2022-11-29T00:01:38.446Z,29.10
2022-11-29T00:04:05.817Z,31.30
2022-11-29T00:06:33.833Z,31.70
2022-11-29T00:09:03.072Z,28.30
2022-11-29T00:11:50.462Z,29.73
2022-11-29T00:14:18.932Z,27.63
2022-11-29T00:16:46.186Z,27.45
2022-11-29T00:19:14.117Z,34.95
2022-11-29T00:21:41.431Z,26.25
2022-11-29T00:24:09.970Z,32.22
2022-11-29T00:26:37.286Z,31.65
2022-11-29T00:29:05.246Z,28.17
2022-11-29T00:31:33.708Z,24.25
2022-11-29T00:34:02.023Z,32.60
2022-11-29T00:36:29.275Z,33.60
2022-11-29T00:38:56.763Z,32.83
2022-11-29T00:41:24.061Z,30.45
2022-11-29T00:43:51.333Z,35.70
2022-11-29T00:46:18.701Z,32.58
2022-11-29T00:48:45.997Z,33.78
2022-11-29T00:51:13.572Z,39.28
2022-11-29T00:53:40.852Z,29.55
2022-11-29T00:56:08.456Z,34.92
2022-11-29T00:58:36.352Z,35.22
2022-11-29T01:01:03.596Z,34.83
2022-11-29T01:03:30.992Z,29.20
2022-11-29T01:06:05.552Z,28.23
2022-11-29T01:08:33.189Z,24.17
2022-11-29T01:11:07.705Z,27.35
2022-11-29T01:13:35.416Z,30.52
2022-11-29T01:16:02.834Z,29.30
2022-11-29T01:18:30.648Z,27.90
2022-11-29T01:21:02.331Z,27.95
2022-11-29T01:23:29.698Z,29.23
2022-11-29T01:26:01.921Z,31.10
2022-11-29T01:28:29.180Z,31.83
2022-11-29T01:30:56.487Z,28.02
2022-11-29T01:33:24.156Z,25.25
2022-11-29T01:35:52.573Z,25.08
2022-11-29T01:38:20.045Z,26.77
2022-11-29T01:40:56.938Z,28.17
2022-11-29T01:43:24.338Z,28.75
2022-11-29T01:45:51.857Z,25.95
2022-11-29T01:48:23.442Z,22.75
2022-11-29T01:50:51.210Z,23.67
2022-11-29T01:53:18.496Z,23.08
2022-11-29T01:55:47.988Z,23.30
2022-11-29T01:58:15.593Z,25.15
2022-11-29T02:00:42.823Z,23.13
2022-11-29T02:03:11.625Z,23.40
2022-11-29T02:05:43.821Z,23.70
2022-11-29T02:08:13.850Z,23.02
2022-11-29T02:11:06.262Z,22.80
2022-11-29T02:13:52.359Z,23.63
2022-11-29T02:16:24.941Z,25.40
2022-11-29T02:18:52.064Z,22.85
2022-11-29T02:21:26.631Z,21.17
2022-11-29T02:24:21.962Z,23.20
2022-11-29T02:27:08.415Z,24.40
2022-11-29T02:29:38.770Z,25.02
2022-11-29T02:34:51.326Z,23.73
2022-11-29T02:37:32.493Z,23.70
2022-11-29T02:40:02.662Z,28.85
2022-11-29T02:42:56.001Z,28.30
2022-11-29T02:45:51.420Z,25.50
2022-11-29T02:48:18.733Z,21.17
2022-11-29T02:50:51.249Z,22.77
2022-11-29T02:53:28.736Z,21.55
2022-11-29T02:56:05.168Z,30.27
2022-11-29T02:58:38.532Z,26.10
2022-11-29T03:01:05.807Z,26.15
2022-11-29T03:03:39.270Z,28.70
2022-11-29T03:06:06.563Z,21.48
2022-11-29T03:08:36.805Z,21.60
2022-11-29T03:11:18.655Z,21.90
2022-11-29T03:13:52.827Z,21.10
2022-11-29T03:16:28.710Z,24.85
2022-11-29T03:19:14.702Z,26.52
2022-11-29T03:21:46.752Z,23.27
2022-11-29T03:24:20.689Z,19.45
2022-11-29T03:26:57.706Z,17.35
2022-11-29T03:29:24.914Z,21.55
2022-11-29T03:31:56.949Z,24.65
2022-11-29T03:34:36.605Z,17.45
2022-11-29T03:37:20.896Z,16.02
2022-11-29T03:39:59.527Z,18.02
2022-11-29T03:42:29.610Z,18.48
2022-11-29T03:45:06.466Z,24.92
2022-11-29T03:47:49.497Z,22.40
2022-11-29T03:50:33.275Z,25.92
2022-11-29T03:53:03.530Z,22.85
2022-11-29T03:55:31.042Z,23.63
2022-11-29T03:58:17.114Z,24.70
2022-11-29T04:00:50.365Z,23.42
2022-11-29T04:03:23.628Z,21.73
2022-11-29T04:06:12.401Z,23.50
2022-11-29T04:08:51.737Z,20.73
2022-11-29T04:11:31.459Z,22.67
2022-11-29T04:14:21.509Z,26.42
2022-11-29T04:17:04.116Z,19.05
2022-11-29T04:19:34.367Z,24.02
2022-11-29T04:22:07.610Z,25.63
2022-11-29T04:24:54.650Z,21.33
2022-11-29T04:27:21.801Z,21.80
2022-11-29T04:29:49.009Z,20.73
2022-11-29T04:32:33.488Z,19.60
2022-11-29T04:35:00.749Z,26.55
2022-11-29T04:37:46.667Z,19.02
2022-11-29T04:40:29.139Z,23.55
2022-11-29T04:43:34.957Z,22.63
2022-11-29T04:46:22.505Z,21.92
2022-11-29T04:49:10.960Z,23.13
2022-11-29T04:51:47.375Z,17.60
2022-11-29T04:54:17.661Z,18.65
2022-11-29T04:56:52.830Z,18.30
2022-11-29T04:59:28.757Z,15.52
2022-11-29T05:01:59.153Z,16.13
2022-11-29T05:04:45.251Z,17.15
2022-11-29T05:07:18.785Z,16.55
2022-11-29T05:09:55.252Z,15.45
2022-11-29T05:12:54.934Z,13.70
2022-11-29T05:15:22.014Z,20.95
2022-11-29T05:18:08.059Z,19.40
2022-11-29T05:20:47.740Z,20.33
2022-11-29T05:23:26.440Z,15.93
2022-11-29T05:25:56.835Z,17.05
2022-11-29T05:31:03.463Z,17.33
2022-11-29T05:33:43.421Z,21.17
2022-11-29T05:36:13.655Z,21.48
2022-11-29T05:38:59.668Z,18.58
2022-11-29T05:41:39.160Z,17.73
2022-11-29T05:44:29.567Z,16.92
2022-11-29T05:47:03.867Z,16.42
2022-11-29T05:49:37.068Z,19.92
2022-11-29T05:52:16.445Z,13.50
2022-11-29T05:55:07.029Z,13.75
2022-11-29T05:57:34.601Z,12.85
2022-11-29T06:00:02.721Z,17.48
2022-11-29T06:02:53.150Z,16.27
2022-11-29T06:05:31.923Z,16.33
2022-11-29T06:08:08.229Z,16.83
2022-11-29T06:10:39.953Z,16.58
2022-11-29T06:13:10.124Z,18.48
2022-11-29T06:15:56.631Z,15.02
2022-11-29T06:18:32.995Z,19.33
2022-11-29T06:21:11.009Z,15.70
2022-11-29T06:23:48.377Z,16.20
2022-11-29T06:26:24.244Z,14.77
2022-11-29T06:28:57.536Z,17.88
2022-11-29T06:31:27.741Z,15.80
2022-11-29T06:33:59.336Z,15.38
2022-11-29T06:36:29.791Z,17.23
2022-11-29T06:38:57.191Z,15.15
2022-11-29T06:41:24.688Z,15.05
2022-11-29T06:43:52.032Z,14.57
2022-11-29T06:46:31.549Z,16.63
2022-11-29T06:49:05.069Z,11.85
2022-11-29T06:51:37.030Z,11.85
2022-11-29T06:54:10.323Z,12.75
2022-11-29T06:56:42.313Z,11.90
2022-11-29T06:59:15.775Z,12.60
2022-11-29T07:01:59.071Z,13.30
2022-11-29T07:04:29.355Z,14.93
2022-11-29T07:06:56.589Z,15.05
2022-11-29T07:09:26.327Z,14.57
2022-11-29T07:11:53.471Z,12.07
2022-11-29T07:14:20.961Z,13.38
2022-11-29T07:16:57.574Z,14.23
2022-11-29T07:19:30.551Z,14.05
2022-11-29T07:22:02.098Z,12.63
2022-11-29T07:24:47.922Z,11.70
2022-11-29T07:27:23.054Z,11.65
2022-11-29T07:30:09.047Z,10.70
2022-11-29T07:32:50.784Z,12.73
2022-11-29T07:35:22.425Z,12.13
2022-11-29T07:37:52.736Z,11.30
2022-11-29T07:40:19.914Z,11.98
2022-11-29T07:43:05.374Z,9.88
2022-11-29T07:45:36.136Z,9.10
2022-11-29T07:48:03.353Z,9.85
2022-11-29T07:50:30.989Z,7.55
2022-11-29T07:52:58.424Z,8.40
2022-11-29T07:55:26.035Z,9.82
2022-11-29T07:57:53.566Z,7.20
2022-11-29T08:00:21.262Z,9.07
2022-11-29T08:02:49.250Z,8.98
2022-11-29T08:05:16.700Z,7.95
2022-11-29T08:07:43.961Z,8.05
2022-11-29T08:10:14.500Z,8.05
2022-11-29T08:15:09.452Z,6.78
2022-11-29T08:17:37.787Z,7.80
2022-11-29T08:20:05.344Z,6.88
2022-11-29T08:22:34.190Z,8.32
2022-11-29T08:25:01.466Z,8.68
2022-11-29T08:27:28.811Z,8.98
2022-11-29T08:29:55.990Z,7.75
2022-11-29T08:32:22.786Z,8.35
2022-11-29T08:34:50.035Z,8.82
2022-11-29T08:37:17.234Z,9.25
2022-11-29T08:39:45.008Z,10.82
2022-11-29T08:42:12.197Z,9.68
2022-11-29T08:44:39.439Z,8.77
2022-11-29T08:47:25.103Z,11.60
2022-11-29T08:50:01.200Z,8.27
2022-11-29T08:52:58.299Z,9.98
2022-11-29T08:55:27.459Z,8.73
2022-11-29T08:57:55.617Z,9.32
2022-11-29T09:00:23.141Z,7.80
2022-11-29T09:02:50.482Z,11.52
2022-11-29T09:05:17.678Z,10.38
2022-11-29T09:07:46.360Z,8.73
2022-11-29T09:10:13.864Z,11.25
2022-11-29T09:12:41.403Z,9.93
2022-11-29T09:15:09.715Z,8.68
2022-11-29T09:17:37.482Z,10.93
2022-11-29T09:20:05.219Z,9.75
2022-11-29T09:22:32.377Z,9.88
2022-11-29T09:24:59.879Z,10.70
2022-11-29T09:27:27.116Z,9.43
2022-11-29T09:29:54.388Z,9.63
2022-11-29T09:32:21.552Z,8.98
2022-11-29T09:34:48.791Z,11.75
2022-11-29T09:37:15.930Z,9.40
2022-11-29T09:39:43.219Z,10.95
2022-11-29T09:42:15.921Z,8.43
2022-11-29T09:45:03.405Z,9.57
2022-11-29T09:47:47.797Z,9.13
2022-11-29T09:50:28.129Z,8.60
2022-11-29T09:53:14.488Z,11.60
2022-11-29T09:55:58.947Z,10.45
2022-11-29T09:58:29.311Z,12.00
2022-11-29T10:03:25.870Z,12.10
2022-11-29T10:06:01.958Z,10.25
2022-11-29T10:08:32.358Z,10.23
2022-11-29T10:13:29.815Z,10.10
2022-11-29T10:16:02.557Z,8.90
2022-11-29T10:18:33.088Z,9.98
2022-11-29T10:21:03.933Z,11.63
2022-11-29T10:23:39.578Z,9.18
2022-11-29T10:26:08.215Z,7.43
2022-11-29T10:28:36.371Z,8.75
2022-11-29T10:31:25.257Z,9.23
2022-11-29T10:33:52.482Z,8.52
2022-11-29T10:36:28.689Z,9.23
2022-11-29T10:38:59.208Z,8.35
2022-11-29T10:41:27.070Z,8.20
2022-11-29T10:43:56.051Z,8.18
2022-11-29T10:46:35.554Z,8.07
2022-11-29T10:49:04.445Z,8.13
2022-11-29T10:51:32.583Z,8.27
2022-11-29T10:54:32.735Z,9.68
2022-11-29T10:57:01.337Z,7.90
2022-11-29T10:59:29.874Z,9.68
2022-11-29T11:01:58.339Z,8.18
2022-11-29T11:04:30.701Z,9.07
2022-11-29T11:07:02.274Z,8.27
2022-11-29T11:09:34.835Z,8.95
2022-11-29T11:12:04.980Z,7.88
2022-11-29T11:14:38.974Z,8.20
2022-11-29T11:17:15.241Z,7.82
2022-11-29T11:19:42.611Z,8.30
2022-11-29T11:22:20.371Z,8.85
2022-11-29T11:24:47.735Z,9.60
2022-11-29T11:27:28.087Z,9.52
2022-11-29T11:29:55.239Z,10.60
2022-11-29T11:32:22.359Z,9.93
2022-11-29T11:34:53.922Z,10.02
2022-11-29T11:37:26.016Z,10.18
2022-11-29T11:40:20.017Z,10.38
2022-11-29T11:42:47.264Z,10.13
2022-11-29T11:45:14.384Z,9.82
2022-11-29T11:47:45.615Z,9.10
2022-11-29T11:50:14.184Z,9.38
2022-11-29T11:52:53.849Z,10.13
2022-11-29T11:55:50.595Z,10.10
2022-11-29T11:58:19.224Z,9.55
2022-11-29T12:01:04.038Z,9.65
2022-11-29T12:03:32.252Z,9.80
2022-11-29T12:06:13.199Z,9.40
2022-11-29T12:08:41.075Z,10.45
2022-11-29T12:11:10.335Z,10.50
2022-11-29T12:13:41.919Z,10.60
2022-11-29T12:16:14.184Z,8.70
2022-11-29T12:18:44.709Z,10.75
2022-11-29T12:21:17.473Z,9.52
2022-11-29T12:23:47.731Z,11.05
2022-11-29T12:29:01.966Z,8.98
2022-11-29T12:32:12.191Z,10.48
2022-11-29T12:34:48.159Z,11.45
2022-11-29T12:37:25.770Z,10.07
2022-11-29T12:40:21.844Z,9.73
2022-11-29T12:42:52.044Z,9.75
2022-11-29T12:45:39.881Z,9.32
2022-11-29T12:48:25.907Z,9.93
2022-11-29T12:51:15.840Z,11.25
2022-11-29T12:54:04.592Z,10.10
2022-11-29T12:56:41.045Z,8.88
2022-11-29T13:01:55.787Z,9.95
2022-11-29T13:04:28.033Z,9.27
2022-11-29T13:07:02.711Z,9.93
2022-11-29T13:09:45.358Z,10.27
2022-11-29T13:12:32.826Z,9.88
2022-11-29T13:15:10.671Z,9.90
2022-11-29T13:17:58.761Z,11.52
2022-11-29T13:20:29.659Z,10.93
2022-11-29T13:23:06.079Z,11.60
2022-11-29T13:25:36.716Z,13.32
2022-11-29T13:28:07.310Z,12.43
2022-11-29T13:30:35.681Z,10.27
2022-11-29T13:33:06.276Z,11.82
2022-11-29T13:35:38.852Z,11.45
2022-11-29T13:38:18.369Z,10.63
2022-11-29T13:40:57.482Z,10.05
2022-11-29T13:43:36.443Z,10.90
2022-11-29T13:46:06.663Z,10.98
2022-11-29T13:48:53.146Z,10.13
2022-11-29T13:51:32.674Z,11.48
2022-11-29T13:54:06.003Z,11.45
2022-11-29T13:56:46.542Z,11.65
2022-11-29T13:59:19.290Z,9.98
2022-11-29T14:01:47.777Z,10.20
2022-11-29T14:04:27.393Z,12.15
2022-11-29T14:07:15.381Z,10.13
2022-11-29T14:09:42.665Z,9.52
2022-11-29T14:12:33.404Z,9.45
2022-11-29T14:15:22.203Z,11.25
2022-11-29T14:17:49.331Z,12.00
2022-11-29T14:20:27.812Z,18.90
2022-11-29T14:23:12.522Z,12.95
2022-11-29T14:25:51.619Z,13.73
2022-11-29T14:28:19.325Z,12.32
2022-11-29T14:30:48.475Z,11.80
2022-11-29T14:33:27.259Z,11.63
2022-11-29T14:36:09.122Z,12.20
2022-11-29T14:38:44.269Z,11.48
2022-11-29T14:41:30.230Z,13.80
2022-11-29T14:44:28.189Z,12.98
2022-11-29T14:47:01.630Z,10.05
2022-11-29T14:49:29.643Z,10.65
2022-11-29T14:52:08.128Z,10.65
2022-11-29T14:54:35.616Z,14.93
2022-11-29T14:57:37.917Z,15.63
2022-11-29T15:00:06.232Z,15.85
2022-11-29T15:02:35.865Z,12.65
2022-11-29T15:05:24.541Z,14.80
2022-11-29T15:08:10.469Z,14.73
2022-11-29T15:10:41.032Z,14.38
2022-11-29T15:13:13.755Z,13.23
2022-11-29T15:15:51.055Z,11.50
2022-11-29T15:18:27.905Z,11.70
2022-11-29T15:21:03.116Z,11.85
2022-11-29T15:23:39.805Z,14.85
2022-11-29T15:28:37.315Z,14.73
2022-11-29T15:31:09.243Z,29.88
2022-11-29T15:33:37.858Z,24.88
2022-11-29T15:36:09.741Z,23.67
2022-11-29T15:38:44.494Z,17.63
2022-11-29T15:41:27.611Z,15.65
2022-11-29T15:43:57.248Z,22.17
2022-11-29T15:46:25.503Z,22.25
2022-11-29T15:48:52.681Z,18.10
2022-11-29T15:51:31.714Z,14.82
2022-11-29T15:54:12.665Z,17.10
2022-11-29T15:56:43.754Z,27.05
2022-11-29T15:59:18.363Z,14.93
2022-11-29T16:01:47.179Z,14.82
2022-11-29T16:04:21.480Z,15.02
2022-11-29T16:06:49.513Z,13.15
2022-11-29T16:09:21.848Z,21.25
2022-11-29T16:11:49.287Z,14.45
2022-11-29T16:14:24.610Z,14.45
2022-11-29T16:16:52.940Z,15.40
2022-11-29T16:19:26.791Z,15.25
2022-11-29T16:22:12.569Z,17.05
2022-11-29T16:24:41.868Z,11.73
2022-11-29T16:27:09.116Z,13.95
2022-11-29T16:29:44.975Z,13.38
2022-11-29T16:32:18.983Z,14.02
2022-11-29T16:34:46.420Z,12.07
2022-11-29T16:37:35.103Z,13.32
2022-11-29T16:40:02.519Z,11.90
2022-11-29T16:42:30.989Z,13.13
2022-11-29T16:45:27.322Z,12.88
2022-11-29T16:48:01.508Z,13.27
2022-11-29T16:50:29.536Z,13.05
2022-11-29T16:52:57.299Z,12.68
2022-11-29T16:55:24.660Z,13.70
2022-11-29T16:57:52.372Z,15.00
2022-11-29T17:00:20.064Z,13.65
2022-11-29T17:02:46.970Z,11.40
2022-11-29T17:05:14.310Z,13.05
2022-11-29T17:07:41.930Z,14.93
2022-11-29T17:10:12.193Z,13.70
2022-11-29T17:12:43.397Z,13.18
2022-11-29T17:15:13.801Z,13.93
2022-11-29T17:17:43.254Z,14.35
2022-11-29T17:20:12.022Z,11.50
2022-11-29T17:22:39.480Z,12.13
2022-11-29T17:25:06.972Z,12.10
2022-11-29T17:27:34.164Z,11.90
2022-11-29T17:30:01.496Z,11.35
2022-11-29T17:32:28.698Z,11.82
2022-11-29T17:34:56.247Z,12.20
2022-11-29T17:37:23.530Z,12.20
2022-11-29T17:39:50.837Z,11.63
2022-11-29T17:42:18.047Z,11.40
2022-11-29T17:44:47.186Z,12.07
2022-11-29T17:47:14.489Z,13.00
2022-11-29T17:49:42.019Z,17.70
2022-11-29T17:52:09.541Z,24.73
2022-11-29T17:54:36.775Z,16.88
2022-11-29T17:57:04.485Z,13.80
2022-11-29T17:59:31.622Z,12.63
2022-11-29T18:01:58.836Z,11.00
2022-11-29T18:04:26.161Z,10.60
2022-11-29T18:06:53.998Z,11.00
2022-11-29T18:09:21.317Z,10.55
2022-11-29T18:11:50.114Z,11.25
2022-11-29T18:14:19.589Z,11.50
2022-11-29T18:16:46.948Z,11.30
2022-11-29T18:19:15.975Z,11.38
2022-11-29T18:21:43.353Z,11.85
2022-11-29T18:24:10.999Z,23.98
2022-11-29T18:26:38.799Z,18.38
2022-11-29T18:29:07.199Z,13.52
2022-11-29T18:31:35.687Z,9.85
2022-11-29T18:34:03.621Z,10.05
2022-11-29T18:36:32.071Z,11.75
2022-11-29T18:39:01.011Z,12.05
2022-11-29T18:41:29.398Z,17.70
2022-11-29T18:43:58.609Z,10.60
2022-11-29T18:46:28.399Z,10.85
2022-11-29T18:48:56.506Z,10.30
2022-11-29T18:51:23.915Z,9.90
2022-11-29T18:53:51.089Z,10.32
2022-11-29T18:56:19.827Z,16.30
2022-11-29T18:58:56.825Z,11.32
2022-11-29T19:01:26.162Z,11.95
2022-11-29T19:03:55.389Z,9.23
2022-11-29T19:06:27.322Z,11.68
2022-11-29T19:08:54.717Z,10.52
2022-11-29T19:11:22.998Z,9.95
2022-11-29T19:13:54.100Z,9.98
2022-11-29T19:16:22.105Z,9.77
2022-11-29T19:18:51.049Z,9.82
2022-11-29T19:21:18.979Z,10.15
2022-11-29T19:23:51.087Z,10.35
2022-11-29T19:26:18.402Z,10.32
2022-11-29T19:28:46.323Z,10.77
2022-11-29T19:31:14.975Z,9.98
2022-11-29T19:33:46.920Z,9.98
2022-11-29T19:36:17.694Z,10.60
2022-11-29T19:38:50.136Z,10.43
2022-11-29T19:41:20.210Z,9.95
2022-11-29T19:43:47.993Z,9.48
2022-11-29T19:46:17.559Z,9.45
2022-11-29T19:48:45.628Z,9.82
2022-11-29T19:51:13.431Z,10.15
2022-11-29T19:53:40.857Z,11.65
2022-11-29T19:56:09.066Z,10.27
2022-11-29T19:58:36.405Z,9.23
2022-11-29T20:01:10.881Z,10.55
2022-11-29T20:03:38.610Z,9.43
2022-11-29T20:06:06.122Z,8.38
2022-11-29T20:08:34.104Z,8.65
2022-11-29T20:11:09.872Z,10.55
2022-11-29T20:13:38.088Z,8.93
2022-11-29T20:16:06.384Z,8.57
2022-11-29T20:18:33.965Z,8.00
2022-11-29T20:21:08.828Z,8.32
2022-11-29T20:23:36.120Z,7.85
2022-11-29T20:26:03.490Z,7.88
2022-11-29T20:28:30.679Z,8.52
2022-11-29T20:30:57.845Z,8.80
2022-11-29T20:33:26.106Z,9.40
2022-11-29T20:36:04.368Z,8.80
2022-11-29T20:38:40.509Z,7.90
2022-11-29T20:41:16.469Z,8.60
2022-11-29T20:44:00.699Z,8.85
2022-11-29T20:46:28.653Z,8.20
2022-11-29T20:48:59.361Z,8.75
2022-11-29T20:51:42.337Z,8.43
2022-11-29T20:54:11.049Z,9.65
2022-11-29T20:56:38.149Z,9.63
2022-11-29T20:59:05.335Z,10.15
2022-11-29T21:01:32.554Z,10.45
2022-11-29T21:03:59.765Z,9.40
2022-11-29T21:06:26.939Z,8.55
2022-11-29T21:08:54.340Z,9.88
2022-11-29T21:11:21.755Z,9.68
2022-11-29T21:13:48.996Z,8.50
2022-11-29T21:16:16.272Z,8.75
2022-11-29T21:18:43.560Z,8.10
2022-11-29T21:21:14.863Z,9.48
2022-11-29T21:23:55.779Z,10.05
2022-11-29T21:26:38.544Z,9.50
2022-11-29T21:29:19.686Z,9.25
2022-11-29T21:31:48.293Z,9.43
2022-11-29T21:34:15.406Z,9.90
2022-11-29T21:36:42.990Z,9.85
2022-11-29T21:39:12.297Z,11.23
2022-11-29T21:41:39.402Z,9.88
2022-11-29T21:44:07.960Z,10.30
2022-11-29T21:46:35.909Z,9.60
2022-11-29T21:49:03.126Z,10.70
2022-11-29T21:51:30.428Z,9.55
2022-11-29T21:53:57.673Z,11.50
2022-11-29T21:56:24.942Z,9.82
2022-11-29T21:58:52.130Z,9.93
2022-11-29T22:01:20.172Z,9.88
2022-11-29T22:03:47.780Z,11.18
2022-11-29T22:06:18.457Z,8.07
2022-11-29T22:08:45.576Z,10.05
2022-11-29T22:11:15.194Z,10.45
2022-11-29T22:14:01.922Z,9.70
2022-11-29T22:16:29.803Z,10.00
2022-11-29T22:18:57.006Z,9.32
2022-11-29T22:21:24.252Z,8.77
2022-11-29T22:23:52.826Z,9.75
2022-11-29T22:26:23.231Z,8.55
2022-11-29T22:28:50.651Z,8.20
2022-11-29T22:31:17.883Z,9.18
2022-11-29T22:33:45.112Z,9.68
2022-11-29T22:36:13.156Z,10.00
2022-11-29T22:38:40.547Z,9.07
2022-11-29T22:41:12.021Z,8.77
2022-11-29T22:43:40.278Z,9.32
2022-11-29T22:46:09.500Z,8.88
2022-11-29T22:48:39.200Z,11.63
2022-11-29T22:51:07.451Z,8.82
2022-11-29T22:53:35.086Z,10.57
2022-11-29T22:56:02.979Z,10.20
2022-11-29T22:58:30.200Z,9.73
2022-11-29T23:01:15.975Z,8.98
2022-11-29T23:03:44.333Z,8.82
2022-11-29T23:06:16.046Z,10.00
2022-11-29T23:08:43.610Z,9.70
2022-11-29T23:11:15.035Z,10.82
2022-11-29T23:13:43.277Z,11.60
2022-11-29T23:16:12.133Z,11.02
2022-11-29T23:18:39.956Z,11.88
2022-11-29T23:21:08.273Z,11.73
2022-11-29T23:23:35.741Z,12.38
2022-11-29T23:26:03.050Z,12.60
2022-11-29T23:28:30.656Z,12.70
2022-11-29T23:30:58.856Z,13.15
2022-11-29T23:33:26.580Z,12.75
2022-11-29T23:36:00.205Z,13.40
2022-11-29T23:38:27.300Z,13.73
2022-11-29T23:40:54.745Z,13.13
2022-11-29T23:43:22.197Z,13.25
2022-11-29T23:45:49.599Z,13.02
2022-11-29T23:48:17.194Z,14.23
2022-11-29T23:50:44.347Z,14.32
2022-11-29T23:53:13.233Z,14.25
2022-11-29T23:55:40.714Z,14.77
2022-11-29T23:58:07.860Z,14.43
